createdAt,value
2022-11-19T00:02:02.513Z,-2.40
2022-11-19T00:04:32.186Z,-2.40
2022-11-19T00:07:00.402Z,-2.30
2022-11-19T00:09:28.574Z,-2.30
2022-11-19T00:12:13.978Z,-2.30
2022-11-19T00:14:42.066Z,-2.30
2022-11-19T00:17:10.187Z,-2.30
2022-11-19T00:19:39.659Z,-2.30
2022-11-19T00:22:07.796Z,-2.30
2022-11-19T00:24:35.919Z,-2.30
2022-11-19T00:27:04.068Z,-2.20
2022-11-19T00:29:32.190Z,-2.20
2022-11-19T00:32:00.322Z,-2.20
2022-11-19T00:34:28.420Z,-2.10
2022-11-19T00:36:57.994Z,-2.10
2022-11-19T00:39:26.103Z,-2.10
2022-11-19T00:41:54.210Z,-2.10
2022-11-19T00:44:22.333Z,-2.10
2022-11-19T00:46:50.446Z,-2.20
2022-11-19T00:49:18.775Z,-2.20
2022-11-19T00:51:47.049Z,-2.20
2022-11-19T00:54:16.716Z,-2.20
2022-11-19T00:56:44.809Z,-2.30
2022-11-19T00:59:12.927Z,-2.30
2022-11-19T01:01:41.149Z,-2.40
2022-11-19T01:04:09.334Z,-2.30
2022-11-19T01:06:37.977Z,-2.40
2022-11-19T01:09:06.145Z,-2.40
2022-11-19T01:11:38.802Z,-2.40
2022-11-19T01:14:07.851Z,-2.40
2022-11-19T01:16:37.917Z,-2.40
2022-11-19T01:19:07.325Z,-2.30
2022-11-19T01:21:37.794Z,-2.40
2022-11-19T01:24:06.677Z,-2.40
2022-11-19T01:26:36.188Z,-2.40
2022-11-19T01:29:04.384Z,-2.40
2022-11-19T01:31:32.540Z,-2.50
2022-11-19T01:34:01.059Z,-2.70
2022-11-19T01:36:30.832Z,-2.70
2022-11-19T01:38:59.473Z,-2.70
2022-11-19T01:41:29.970Z,-2.70
2022-11-19T01:44:01.441Z,-2.60
2022-11-19T01:46:31.349Z,-2.60
2022-11-19T01:49:02.872Z,-2.50
2022-11-19T01:51:36.644Z,-2.50
2022-11-19T01:54:09.634Z,-2.50
2022-11-19T01:56:37.948Z,-2.40
2022-11-19T01:59:10.631Z,-2.50
2022-11-19T02:01:38.944Z,-2.50
2022-11-19T02:04:09.032Z,-2.50
2022-11-19T02:06:37.888Z,-2.50
2022-11-19T02:09:06.249Z,-2.50
2022-11-19T02:12:10.568Z,-2.60
2022-11-19T02:14:54.878Z,-2.60
2022-11-19T02:17:34.440Z,-2.60
2022-11-19T02:24:51.391Z,-2.80
2022-11-19T02:27:56.987Z,-2.80
2022-11-19T02:30:27.168Z,-2.80
2022-11-19T02:33:01.268Z,-2.80
2022-11-19T02:35:38.840Z,-2.80
2022-11-19T02:38:16.801Z,-2.80
2022-11-19T02:40:49.048Z,-2.80
2022-11-19T02:43:23.035Z,-2.80
2022-11-19T02:45:56.199Z,-2.80
2022-11-19T02:48:28.144Z,-2.70
2022-11-19T02:51:00.482Z,-2.70
2022-11-19T02:53:28.369Z,-2.80
2022-11-19T02:56:14.765Z,-2.80
2022-11-19T02:59:10.042Z,-2.70
2022-11-19T03:02:00.780Z,-2.80
2022-11-19T03:04:33.500Z,-2.90
2022-11-19T03:07:05.723Z,-3.00
2022-11-19T03:09:37.644Z,-3.00
2022-11-19T03:12:14.134Z,-2.90
2022-11-19T03:15:07.958Z,-2.90
2022-11-19T03:17:53.362Z,-2.80
2022-11-19T03:20:26.448Z,-2.70
2022-11-19T03:22:59.038Z,-2.60
2022-11-19T03:25:33.083Z,-2.60
2022-11-19T03:28:04.446Z,-2.60
2022-11-19T03:30:33.182Z,-2.60
2022-11-19T03:33:07.570Z,-2.70
2022-11-19T03:35:41.166Z,-2.90
2022-11-19T03:38:14.451Z,-3.10
2022-11-19T03:40:43.157Z,-3.10
2022-11-19T03:43:14.923Z,-3.00
2022-11-19T03:45:46.430Z,-2.90
2022-11-19T03:48:17.686Z,-2.90
2022-11-19T03:50:50.673Z,-2.90
2022-11-19T03:53:18.974Z,-2.80
2022-11-19T03:55:50.938Z,-2.90
2022-11-19T03:58:18.902Z,-3.00
2022-11-19T04:00:47.019Z,-3.10
2022-11-19T04:03:16.286Z,-3.00
2022-11-19T04:05:44.157Z,-3.00
2022-11-19T04:08:12.091Z,-2.90
2022-11-19T04:10:40.185Z,-2.90
2022-11-19T04:13:08.088Z,-3.00
2022-11-19T04:15:35.965Z,-3.00
2022-11-19T04:18:03.873Z,-2.90
2022-11-19T04:20:33.121Z,-2.90
2022-11-19T04:23:01.125Z,-3.00
2022-11-19T04:25:29.065Z,-2.80
2022-11-19T04:27:57.005Z,-2.60
2022-11-19T04:30:24.966Z,-2.60
2022-11-19T04:32:52.893Z,-2.50
2022-11-19T04:35:21.983Z,-2.40
2022-11-19T04:37:51.272Z,-2.30
2022-11-19T04:40:19.166Z,-2.30
2022-11-19T04:42:47.077Z,-2.20
2022-11-19T04:45:15.181Z,-2.10
2022-11-19T04:47:43.064Z,-2.10
2022-11-19T04:50:11.205Z,-2.00
2022-11-19T04:52:41.060Z,-2.00
2022-11-19T04:55:11.666Z,-2.10
2022-11-19T04:57:39.632Z,-2.30
2022-11-19T05:00:08.981Z,-2.40
2022-11-19T05:02:36.885Z,-2.50
2022-11-19T05:05:05.265Z,-2.80
2022-11-19T05:07:33.194Z,-3.00
2022-11-19T05:10:01.140Z,-2.90
2022-11-19T05:12:30.412Z,-3.00
2022-11-19T05:14:58.313Z,-3.10
2022-11-19T05:17:26.202Z,-3.10
2022-11-19T05:19:54.127Z,-3.20
2022-11-19T05:22:22.134Z,-3.30
2022-11-19T05:24:50.048Z,-3.40
2022-11-19T05:27:18.059Z,-3.40
2022-11-19T05:29:47.272Z,-3.40
2022-11-19T05:32:15.191Z,-3.40
2022-11-19T05:34:43.071Z,-3.50
2022-11-19T05:37:10.963Z,-3.40
2022-11-19T05:39:38.837Z,-3.30
2022-11-19T05:42:06.866Z,-3.00
2022-11-19T05:44:34.746Z,-2.80
2022-11-19T05:47:03.991Z,-2.70
2022-11-19T05:49:31.901Z,-2.60
2022-11-19T05:51:59.783Z,-2.50
2022-11-19T05:54:27.717Z,-2.40
2022-11-19T05:56:55.659Z,-2.40
2022-11-19T05:59:23.543Z,-2.40
2022-11-19T06:01:51.549Z,-2.60
2022-11-19T06:04:20.780Z,-2.60
2022-11-19T06:06:48.676Z,-2.40
2022-11-19T06:09:16.563Z,-2.30
2022-11-19T06:11:50.492Z,-2.20
2022-11-19T06:14:22.028Z,-2.20
2022-11-19T06:16:51.389Z,-2.10
2022-11-19T06:19:21.410Z,-2.20
2022-11-19T06:21:50.075Z,-2.40
2022-11-19T06:24:18.100Z,-2.40
2022-11-19T06:26:46.331Z,-2.30
2022-11-19T06:29:15.479Z,-2.20
2022-11-19T06:31:43.433Z,-2.20
2022-11-19T06:34:11.612Z,-2.30
2022-11-19T06:36:46.202Z,-2.20
2022-11-19T06:39:17.404Z,-2.10
2022-11-19T06:41:45.508Z,-2.00
2022-11-19T06:44:13.415Z,-2.00
2022-11-19T06:46:41.447Z,-1.90
2022-11-19T06:49:12.196Z,-1.90
2022-11-19T06:51:43.582Z,-2.00
2022-11-19T06:54:11.466Z,-2.10
2022-11-19T06:56:39.371Z,-2.20
2022-11-19T06:59:07.265Z,-2.30
2022-11-19T07:01:35.209Z,-2.30
2022-11-19T07:04:03.150Z,-2.30
2022-11-19T07:06:31.034Z,-2.40
2022-11-19T07:09:00.299Z,-2.40
2022-11-19T07:11:28.214Z,-2.30
2022-11-19T07:13:58.409Z,-2.20
2022-11-19T07:16:27.990Z,-2.20
2022-11-19T07:18:57.355Z,-2.00
2022-11-19T07:21:25.749Z,-1.90
2022-11-19T07:23:53.674Z,-1.80
2022-11-19T07:26:23.159Z,-1.80
2022-11-19T07:28:51.046Z,-1.80
2022-11-19T07:31:18.992Z,-1.80
2022-11-19T07:33:46.868Z,-2.00
2022-11-19T07:36:18.376Z,-2.20
2022-11-19T07:38:47.267Z,-2.20
2022-11-19T07:41:33.147Z,-2.10
2022-11-19T07:44:02.432Z,-2.00
2022-11-19T07:46:30.346Z,-1.90
2022-11-19T07:48:59.377Z,-2.20
2022-11-19T07:51:27.609Z,-2.20
2022-11-19T07:53:56.602Z,-2.40
2022-11-19T07:56:24.766Z,-2.40
2022-11-19T07:58:52.746Z,-2.30
2022-11-19T08:01:23.978Z,-2.30
2022-11-19T08:03:56.240Z,-2.10
2022-11-19T08:06:26.355Z,-2.00
2022-11-19T08:08:56.513Z,-2.10
2022-11-19T08:11:25.250Z,-2.20
2022-11-19T08:13:53.492Z,-2.20
2022-11-19T08:16:41.057Z,-2.20
2022-11-19T08:19:10.583Z,-2.20
2022-11-19T08:21:42.057Z,-2.00
2022-11-19T08:24:10.353Z,-2.00
2022-11-19T08:26:39.236Z,-2.00
2022-11-19T08:29:11.629Z,-2.10
2022-11-19T08:31:45.772Z,-2.10
2022-11-19T08:34:13.772Z,-2.20
2022-11-19T08:36:41.779Z,-2.30
2022-11-19T08:39:10.037Z,-2.40
2022-11-19T08:41:55.333Z,-2.30
2022-11-19T08:44:23.491Z,-2.30
2022-11-19T08:46:52.936Z,-2.20
2022-11-19T08:49:21.032Z,-2.20
2022-11-19T08:51:48.969Z,-2.20
2022-11-19T08:54:17.388Z,-2.20
2022-11-19T08:56:45.652Z,-2.10
2022-11-19T08:59:13.535Z,-2.10
2022-11-19T09:01:41.468Z,-2.20
2022-11-19T09:04:10.723Z,-2.10
2022-11-19T09:06:38.637Z,-2.10
2022-11-19T09:09:06.516Z,-2.10
2022-11-19T09:11:39.891Z,-2.10
2022-11-19T09:14:10.756Z,-2.10
2022-11-19T09:16:38.763Z,-2.00
2022-11-19T09:19:06.667Z,-1.90
2022-11-19T09:21:35.914Z,-1.90
2022-11-19T09:24:03.867Z,-1.80
2022-11-19T09:26:31.799Z,-1.80
2022-11-19T09:28:59.689Z,-1.70
2022-11-19T09:31:27.611Z,-1.70
2022-11-19T09:33:55.852Z,-1.70
2022-11-19T09:36:23.750Z,-1.70
2022-11-19T09:38:57.585Z,-1.60
2022-11-19T09:41:47.740Z,-1.60
2022-11-19T09:44:33.633Z,-1.70
2022-11-19T09:47:07.885Z,-1.70
2022-11-19T09:49:42.013Z,-1.70
2022-11-19T09:52:15.972Z,-1.70
2022-11-19T09:54:49.680Z,-1.70
2022-11-19T09:57:22.037Z,-1.70
2022-11-19T09:59:52.858Z,-1.70
2022-11-19T10:02:23.629Z,-1.80
2022-11-19T10:04:52.950Z,-1.90
2022-11-19T10:07:32.134Z,-1.90
2022-11-19T10:10:16.354Z,-1.90
2022-11-19T10:13:12.670Z,-2.00
2022-11-19T10:16:03.856Z,-2.00
2022-11-19T10:18:40.528Z,-2.00
2022-11-19T10:21:12.314Z,-2.00
2022-11-19T10:23:49.802Z,-1.90
2022-11-19T10:26:23.937Z,-1.90
2022-11-19T10:28:56.911Z,-1.90
2022-11-19T10:31:35.670Z,-1.80
2022-11-19T10:34:08.700Z,-1.80
2022-11-19T10:36:42.225Z,-1.80
2022-11-19T10:39:18.270Z,-1.90
2022-11-19T10:41:53.174Z,-1.90
2022-11-19T10:44:40.387Z,-1.90
2022-11-19T10:47:13.752Z,-1.80
2022-11-19T10:49:43.570Z,-1.80
2022-11-19T10:52:25.765Z,-1.80
2022-11-19T10:54:57.491Z,-1.80
2022-11-19T10:57:30.720Z,-1.90
2022-11-19T10:59:58.924Z,-1.90
2022-11-19T11:02:32.674Z,-1.90
2022-11-19T11:05:05.599Z,-2.00
2022-11-19T11:07:52.704Z,-2.10
2022-11-19T11:10:44.161Z,-2.00
2022-11-19T11:13:59.576Z,-2.00
2022-11-19T11:16:38.349Z,-2.00
2022-11-19T11:19:14.529Z,-2.10
2022-11-19T11:21:44.046Z,-2.10
2022-11-19T11:24:13.275Z,-2.10
2022-11-19T11:26:41.672Z,-2.10
2022-11-19T11:29:27.095Z,-2.00
2022-11-19T11:31:55.054Z,-2.00
2022-11-19T11:34:33.646Z,-2.10
2022-11-19T11:37:03.946Z,-2.00
2022-11-19T11:39:33.969Z,-2.00
2022-11-19T11:42:06.932Z,-2.00
2022-11-19T11:44:39.303Z,-2.00
2022-11-19T11:47:14.003Z,-2.00
2022-11-19T11:49:44.310Z,-1.90
2022-11-19T11:52:19.094Z,-1.90
2022-11-19T11:54:59.936Z,-1.80
2022-11-19T11:57:30.066Z,-1.70
2022-11-19T11:59:59.682Z,-1.70
2022-11-19T12:02:31.258Z,-1.60
2022-11-19T12:05:02.390Z,-1.60
2022-11-19T12:08:04.129Z,-1.60
2022-11-19T12:10:42.803Z,-1.50
2022-11-19T12:13:44.556Z,-1.50
2022-11-19T12:16:20.059Z,-1.60
2022-11-19T12:18:59.374Z,-1.60
2022-11-19T12:21:36.190Z,-1.60
2022-11-19T12:24:19.016Z,-1.60
2022-11-19T12:26:56.359Z,-1.60
2022-11-19T12:29:29.129Z,-1.60
2022-11-19T12:32:19.551Z,-1.50
2022-11-19T12:35:02.582Z,-1.60
2022-11-19T12:37:43.162Z,-1.60
2022-11-19T12:40:26.307Z,-1.50
2022-11-19T12:43:02.751Z,-1.60
2022-11-19T12:45:41.971Z,-1.60
2022-11-19T12:48:30.861Z,-1.60
2022-11-19T12:51:06.824Z,-1.60
2022-11-19T12:53:58.643Z,-1.60
2022-11-19T12:56:40.310Z,-1.70
2022-11-19T12:59:19.806Z,-1.70
2022-11-19T13:01:52.431Z,-1.60
2022-11-19T13:04:27.798Z,-1.60
2022-11-19T13:07:00.556Z,-1.60
2022-11-19T13:09:39.673Z,-1.60
2022-11-19T13:12:12.248Z,-1.60
2022-11-19T13:14:42.364Z,-1.60
2022-11-19T13:17:23.259Z,-1.60
2022-11-19T13:19:55.749Z,-1.70
2022-11-19T13:22:28.980Z,-1.70
2022-11-19T13:25:01.136Z,-1.70
2022-11-19T13:27:31.380Z,-1.70
2022-11-19T13:30:03.065Z,-1.60
2022-11-19T13:32:38.515Z,-1.60
2022-11-19T13:35:17.729Z,-1.60
2022-11-19T13:37:58.213Z,-1.60
2022-11-19T13:40:31.540Z,-1.50
2022-11-19T13:43:31.640Z,-1.50
2022-11-19T13:46:19.304Z,-1.50
2022-11-19T13:48:54.190Z,-1.50
2022-11-19T13:51:30.033Z,-1.50
2022-11-19T13:54:03.025Z,-1.50
2022-11-19T13:56:53.882Z,-1.50
2022-11-19T13:59:27.326Z,-1.40
2022-11-19T14:02:16.714Z,-1.40
2022-11-19T14:05:02.775Z,-1.40
2022-11-19T14:07:46.726Z,-1.40
2022-11-19T14:10:24.448Z,-1.40
2022-11-19T14:13:20.238Z,-1.40
2022-11-19T14:16:15.294Z,-1.40
2022-11-19T14:19:03.463Z,-1.40
2022-11-19T14:22:05.730Z,-1.30
2022-11-19T14:25:17.610Z,-1.40
2022-11-19T14:27:45.994Z,-1.40
2022-11-19T14:30:16.666Z,-1.40
2022-11-19T14:32:50.256Z,-1.30
2022-11-19T14:35:34.620Z,-1.30
2022-11-19T14:38:36.757Z,-1.30
2022-11-19T14:41:17.006Z,-1.30
2022-11-19T14:44:09.838Z,-1.30
2022-11-19T14:46:43.697Z,-1.30
2022-11-19T14:49:35.305Z,-1.30
2022-11-19T14:52:04.162Z,-1.30
2022-11-19T14:54:36.870Z,-1.20
2022-11-19T14:57:09.947Z,-1.20
2022-11-19T14:59:39.390Z,-1.30
2022-11-19T15:02:19.663Z,-1.30
2022-11-19T15:04:55.102Z,-1.30
2022-11-19T15:07:41.764Z,-1.30
2022-11-19T15:10:32.386Z,-1.30
2022-11-19T15:13:24.622Z,-1.30
2022-11-19T15:15:56.465Z,-1.30
2022-11-19T15:19:12.269Z,-1.30
2022-11-19T15:22:21.651Z,-1.30
2022-11-19T15:25:03.693Z,-1.30
2022-11-19T15:27:57.647Z,-1.30
2022-11-19T15:30:37.951Z,-1.30
2022-11-19T15:33:30.515Z,-1.30
2022-11-19T15:36:15.089Z,-1.30
2022-11-19T15:38:47.446Z,-1.30
2022-11-19T15:41:21.578Z,-1.30
2022-11-19T15:43:51.934Z,-1.30
2022-11-19T15:46:30.504Z,-1.30
2022-11-19T15:49:03.942Z,-1.30
2022-11-19T15:51:39.808Z,-1.30
2022-11-19T15:54:13.021Z,-1.30
2022-11-19T15:56:47.585Z,-1.30
2022-11-19T15:59:17.159Z,-1.30
2022-11-19T16:01:57.156Z,-1.20
2022-11-19T16:04:29.645Z,-1.20
2022-11-19T16:06:57.751Z,-1.20
2022-11-19T16:09:26.384Z,-1.20
2022-11-19T16:12:14.009Z,-1.20
2022-11-19T16:14:59.597Z,-1.20
2022-11-19T16:17:43.151Z,-1.20
2022-11-19T16:20:22.933Z,-1.20
2022-11-19T16:22:56.400Z,-1.20
2022-11-19T16:25:36.511Z,-1.20
2022-11-19T16:28:07.297Z,-1.20
2022-11-19T16:30:46.177Z,-1.20
2022-11-19T16:33:21.117Z,-1.20
2022-11-19T16:35:52.839Z,-1.20
2022-11-19T16:38:27.164Z,-1.20
2022-11-19T16:41:13.195Z,-1.20
2022-11-19T16:43:44.287Z,-1.10
2022-11-19T16:46:16.002Z,-1.20
2022-11-19T16:49:04.388Z,-1.20
2022-11-19T16:51:35.613Z,-1.20
2022-11-19T16:54:04.851Z,-1.20
2022-11-19T16:56:36.855Z,-1.20
2022-11-19T16:59:06.099Z,-1.20
2022-11-19T17:01:34.470Z,-1.10
2022-11-19T17:04:07.435Z,-1.10
2022-11-19T17:06:38.435Z,-1.20
2022-11-19T17:09:07.624Z,-1.20
2022-11-19T17:12:14.067Z,-1.20
2022-11-19T17:14:49.683Z,-1.20
2022-11-19T17:17:40.754Z,-1.20
2022-11-19T17:20:51.499Z,-1.20
2022-11-19T17:23:21.924Z,-1.10
2022-11-19T17:25:52.109Z,-1.20
2022-11-19T17:28:22.178Z,-1.10
2022-11-19T17:30:50.962Z,-1.10
2022-11-19T17:33:20.310Z,-1.10
2022-11-19T17:35:48.898Z,-1.10
2022-11-19T17:38:20.082Z,-1.10
2022-11-19T17:40:49.876Z,-1.10
2022-11-19T17:43:43.127Z,-1.10
2022-11-19T17:46:11.110Z,-1.10
2022-11-19T17:48:41.390Z,-1.10
2022-11-19T17:51:12.808Z,-1.10
2022-11-19T17:53:42.226Z,-1.10
2022-11-19T17:56:17.425Z,-1.10
2022-11-19T17:58:45.358Z,-1.10
2022-11-19T18:01:14.109Z,-1.00
2022-11-19T18:03:42.160Z,-1.00
2022-11-19T18:06:12.941Z,-1.10
2022-11-19T18:08:42.878Z,-1.10
2022-11-19T18:11:13.267Z,-1.10
2022-11-19T18:13:42.803Z,-1.10
2022-11-19T18:16:14.392Z,-1.10
2022-11-19T18:18:42.282Z,-1.10
2022-11-19T18:21:12.144Z,-1.10
2022-11-19T18:23:40.831Z,-1.10
2022-11-19T18:26:12.103Z,-1.00
2022-11-19T18:28:43.651Z,-1.00
2022-11-19T18:31:16.124Z,-1.10
2022-11-19T18:33:45.354Z,-1.00
2022-11-19T18:36:13.281Z,-1.00
2022-11-19T18:38:41.233Z,-1.00
2022-11-19T18:41:12.280Z,-1.00
2022-11-19T18:43:58.554Z,-1.00
2022-11-19T18:46:27.086Z,-1.00
2022-11-19T18:48:55.158Z,-1.00
2022-11-19T18:51:25.195Z,-1.00
2022-11-19T18:53:53.127Z,-1.00
2022-11-19T18:56:22.359Z,-1.00
2022-11-19T18:58:50.379Z,-1.00
2022-11-19T19:01:18.567Z,-1.00
2022-11-19T19:03:46.901Z,-1.00
2022-11-19T19:06:15.740Z,-1.00
2022-11-19T19:08:43.709Z,-1.00
2022-11-19T19:11:29.985Z,-1.00
2022-11-19T19:13:59.268Z,-1.00
2022-11-19T19:16:27.171Z,-1.00
2022-11-19T19:18:55.460Z,-1.00
2022-11-19T19:21:24.546Z,-1.00
2022-11-19T19:23:52.429Z,-1.00
2022-11-19T19:26:20.417Z,-1.00
2022-11-19T19:28:50.580Z,-1.00
2022-11-19T19:31:19.877Z,-1.00
2022-11-19T19:33:48.257Z,-1.00
2022-11-19T19:36:17.219Z,-1.00
2022-11-19T19:38:45.441Z,-1.00
2022-11-19T19:41:15.990Z,-0.90
2022-11-19T19:43:44.064Z,-0.90
2022-11-19T19:46:15.846Z,-0.90
2022-11-19T19:48:46.260Z,-0.90
2022-11-19T19:51:16.124Z,-0.90
2022-11-19T19:53:44.671Z,-0.90
2022-11-19T19:56:14.672Z,-0.90
2022-11-19T19:58:43.739Z,-1.00
2022-11-19T20:01:13.641Z,-1.00
2022-11-19T20:03:41.776Z,-1.00
2022-11-19T20:06:12.623Z,-1.00
2022-11-19T20:08:41.148Z,-1.00
2022-11-19T20:11:10.728Z,-1.00
2022-11-19T20:13:39.789Z,-1.00
2022-11-19T20:16:14.551Z,-1.00
2022-11-19T20:18:45.928Z,-1.00
2022-11-19T20:21:16.766Z,-1.00
2022-11-19T20:23:45.344Z,-1.00
2022-11-19T20:26:15.982Z,-1.00
2022-11-19T20:28:44.436Z,-1.00
2022-11-19T20:31:14.475Z,-1.00
2022-11-19T20:33:43.231Z,-1.00
2022-11-19T20:36:13.444Z,-1.00
2022-11-19T20:38:44.323Z,-1.00
2022-11-19T20:41:27.855Z,-1.00
2022-11-19T20:44:12.965Z,-1.00
2022-11-19T20:46:40.852Z,-1.00
2022-11-19T20:49:11.618Z,-1.00
2022-11-19T20:51:42.474Z,-1.00
2022-11-19T20:54:12.172Z,-1.00
2022-11-19T20:56:41.199Z,-1.00
2022-11-19T20:59:09.479Z,-1.00
2022-11-19T21:01:37.513Z,-1.00
2022-11-19T21:04:05.784Z,-1.00
2022-11-19T21:06:33.899Z,-1.00
2022-11-19T21:09:02.047Z,-1.00
2022-11-19T21:11:33.018Z,-1.00
2022-11-19T21:14:01.112Z,-1.00
2022-11-19T21:16:29.920Z,-1.00
2022-11-19T21:18:58.001Z,-1.00
2022-11-19T21:21:26.243Z,-1.00
2022-11-19T21:23:55.033Z,-1.00
2022-11-19T21:26:25.363Z,-1.00
2022-11-19T21:28:57.117Z,-0.90
2022-11-19T21:31:37.906Z,-0.90
2022-11-19T21:34:06.840Z,-0.90
2022-11-19T21:36:35.101Z,-0.90
2022-11-19T21:39:03.374Z,-0.90
2022-11-19T21:41:31.341Z,-0.90
2022-11-19T21:44:00.898Z,-0.90
2022-11-19T21:46:28.813Z,-0.90
2022-11-19T21:48:56.772Z,-0.90
2022-11-19T21:51:25.433Z,-0.90
2022-11-19T21:53:55.043Z,-0.90
2022-11-19T21:56:23.025Z,-0.90
2022-11-19T21:58:50.958Z,-0.90
2022-11-19T22:01:20.279Z,-0.90
2022-11-19T22:03:48.501Z,-0.90
2022-11-19T22:06:16.508Z,-0.90
2022-11-19T22:08:44.576Z,-0.90
2022-11-19T22:11:32.412Z,-0.90
2022-11-19T22:14:02.840Z,-0.90
2022-11-19T22:16:33.938Z,-0.90
2022-11-19T22:19:02.129Z,-0.80
2022-11-19T22:21:30.155Z,-0.80
2022-11-19T22:23:58.374Z,-0.80
2022-11-19T22:26:26.886Z,-0.80
2022-11-19T22:28:54.817Z,-0.80
2022-11-19T22:31:23.390Z,-0.80
2022-11-19T22:33:53.776Z,-0.80
2022-11-19T22:36:22.817Z,-0.80
2022-11-19T22:38:51.290Z,-0.80
2022-11-19T22:41:21.124Z,-0.90
2022-11-19T22:43:49.084Z,-0.90
2022-11-19T22:46:18.745Z,-0.90
2022-11-19T22:48:46.886Z,-0.80
2022-11-19T22:51:18.471Z,-0.80
2022-11-19T22:53:46.588Z,-0.80
2022-11-19T22:56:16.949Z,-0.80
2022-11-19T22:58:45.096Z,-0.80
2022-11-19T23:01:17.446Z,-0.80
2022-11-19T23:03:45.652Z,-0.80
2022-11-19T23:06:14.074Z,-0.80
2022-11-19T23:08:43.676Z,-0.90
2022-11-19T23:11:12.200Z,-0.80
2022-11-19T23:13:41.544Z,-0.80
2022-11-19T23:16:10.984Z,-0.80
2022-11-19T23:18:40.778Z,-0.80
2022-11-19T23:21:09.996Z,-0.80
2022-11-19T23:23:37.912Z,-0.80
2022-11-19T23:26:08.593Z,-0.80
2022-11-19T23:28:38.060Z,-0.80
2022-11-19T23:31:06.590Z,-0.80
2022-11-19T23:33:34.560Z,-0.80
2022-11-19T23:36:03.948Z,-0.80
2022-11-19T23:38:31.930Z,-0.80
2022-11-19T23:41:00.429Z,-0.80
2022-11-19T23:43:30.607Z,-0.80
2022-11-19T23:46:05.071Z,-0.80
2022-11-19T23:48:33.820Z,-0.80
2022-11-19T23:51:03.066Z,-0.80
2022-11-19T23:53:31.279Z,-0.80
2022-11-19T23:55:59.385Z,-0.80
2022-11-19T23:58:29.035Z,-0.80
